Dilley, TX (78017)

3:58 PM CST on February 27, 2015 (GMT -0600)
Rocky Ridge Ranch | Change Station
CLOSE
Current Station
Personal Weather Station
Location: Pearsall, TX
Elevation: 571 ft
Nearby Weather Stations

Elev 571 ft 28.84 °N, 99.15 °W | Updated 16 seconds ago

Overcast
Overcast
35.0 °F
Feels Like 31 °F
N
4.2
Wind Variable Wind from ESE
Gusts 9.0 mph

Today
High -- | Low -- °F
--% Chance of Precip.
Yesterday
High -- | Low -- °F
Precip. -- in
7:04 AM 6:35 PM
Waxing Gibbous, 72% visible
Pressure 30.25 in
Visibility 6.0 miles
Clouds Scattered Clouds 1100 ft
Overcast 1800 ft
Windchill 31 °F
Dew Point 32 °F
Humidity 90%
Rainfall 0.00 in
Snow Depth Not available.
UV 2 out of 12
Pollen 8.30 out of 12
Air Quality Not available.
Flu Activity Not available.
SPECI KCOT 272115Z AUTO 03009KT 6SM BR SCT011 OVC018 03/01 A3025 RMK AO2 T00330011

More Conditions Fewer Conditions

Pressure 30.25 in
Visibility 6.0 miles
Clouds Scattered Clouds 1100 ft
Overcast 1800 ft
Windchill 31 °F
Dew Point 32 °F
Humidity 90%
Rainfall 0.00 in
Snow Depth Not available.
UV 2 out of 12
Pollen 8.30 out of 12
Air Quality Not available.
Flu Activity Not available.
SPECI KCOT 272115Z AUTO 03009KT 6SM BR SCT011 OVC018 03/01 A3025 RMK AO2 T00330011

More Conditions Fewer Conditions

Nowcast | as of 2:52 PM CST on February 27, 2015

Through the late afternoon and evening...patchy drizzle and light rain will occur. Rainfall will amount from a trace to a few hundredths of an inch.

×

10-Day Weather Forecast

Almanac

Astronomy

Feb. 27, 2015 Rise Set
Actual Time
Civil Twilight
Nautical Twilight
Astronomical Twilight
Moon
Length of Visible Light
Length of Day
Tomorrow will be .
, % of the Moon is Illuminated

Today's Extremes

State Highs State Lows

Community

WunderPhotos

Upload Photos

1,800,844 photos uploaded!

WunderBlogs® & News

Nearby

Air Quality

  Air Quality AQ Index Pollutant
Not available.

Snow Depth

Station Depth Elevation

Earthquake Activity

City Distance Mag. Time & Date
Minimum magnitude displayed is 2.5.

Coastal Water Temperatures

Place Temperature

Nearby Weather Stations